createdAt,value
2019-02-23T00:00:05.221Z,79.10
2019-02-23T00:02:33.656Z,75.90
2019-02-23T00:05:02.101Z,78.40
2019-02-23T00:07:30.598Z,74.80
2019-02-23T00:09:59.038Z,74.60
2019-02-23T00:12:27.653Z,74.40
2019-02-23T00:14:56.156Z,72.40
2019-02-23T00:17:24.581Z,73.70
2019-02-23T00:19:53.086Z,72.80
2019-02-23T00:22:21.623Z,73.30
2019-02-23T00:24:50.050Z,69.80
2019-02-23T00:27:18.798Z,71.50
2019-02-23T00:29:47.226Z,70.80
2019-02-23T00:32:15.685Z,71.00
2019-02-23T00:34:44.671Z,68.90
2019-02-23T00:37:13.342Z,68.40
2019-02-23T00:39:41.862Z,70.20
2019-02-23T00:42:10.469Z,66.50
2019-02-23T00:44:38.889Z,68.20
2019-02-23T00:47:07.562Z,69.90
2019-02-23T00:49:36.770Z,68.30
2019-02-23T00:52:05.765Z,65.40
2019-02-23T00:54:34.271Z,65.30
2019-02-23T00:57:02.806Z,66.90
2019-02-23T00:59:31.230Z,64.90
2019-02-23T01:01:59.761Z,64.90
2019-02-23T01:04:28.597Z,65.70
2019-02-23T01:06:57.252Z,66.70
2019-02-23T01:09:25.924Z,67.00
2019-02-23T01:11:54.427Z,65.90
2019-02-23T01:14:22.846Z,66.50
2019-02-23T01:16:51.366Z,65.40
2019-02-23T01:19:20.045Z,67.60
2019-02-23T01:21:48.501Z,65.90
2019-02-23T01:24:17.092Z,64.30
2019-02-23T01:26:45.601Z,63.50
2019-02-23T01:29:14.329Z,65.10
2019-02-23T01:34:03.701Z,62.30
2019-02-23T01:36:32.142Z,67.20
2019-02-23T01:39:00.569Z,65.80
2019-02-23T01:41:29.402Z,65.60
2019-02-23T01:44:00.396Z,66.80
2019-02-23T01:46:28.016Z,66.90
2019-02-23T01:48:56.505Z,67.90
2019-02-23T01:51:25.229Z,66.90
2019-02-23T01:53:53.653Z,66.20
2019-02-23T01:56:22.102Z,64.20
2019-02-23T01:58:50.525Z,65.20
2019-02-23T02:01:19.157Z,64.60
2019-02-23T02:03:47.569Z,64.80
2019-02-23T02:06:16.550Z,64.00
2019-02-23T02:08:45.722Z,65.20
2019-02-23T02:11:14.237Z,63.90
2019-02-23T02:13:42.649Z,62.90
2019-02-23T02:16:11.186Z,63.50
2019-02-23T02:18:39.613Z,63.00
2019-02-23T02:21:08.038Z,64.50
2019-02-23T02:23:36.473Z,63.70
2019-02-23T02:26:05.033Z,65.60
2019-02-23T02:28:33.469Z,66.00
2019-02-23T02:31:01.900Z,65.00
2019-02-23T02:33:30.651Z,66.30
2019-02-23T02:35:59.085Z,67.30
2019-02-23T02:38:27.519Z,67.00
2019-02-23T02:40:55.940Z,68.20
2019-02-23T02:43:24.377Z,68.70
2019-02-23T02:45:52.797Z,68.50
2019-02-23T02:48:21.232Z,68.80
2019-02-23T02:50:49.658Z,68.70
2019-02-23T02:53:18.092Z,68.00
2019-02-23T02:55:46.512Z,69.40
2019-02-23T02:58:15.043Z,68.40
2019-02-23T03:00:43.457Z,68.20
2019-02-23T03:03:11.907Z,67.40
2019-02-23T03:05:40.399Z,68.00
2019-02-23T03:08:09.082Z,66.60
2019-02-23T03:10:37.506Z,67.10
2019-02-23T03:13:05.949Z,66.20
2019-02-23T03:15:34.379Z,66.60
2019-02-23T03:18:02.976Z,66.90
2019-02-23T03:20:36.715Z,64.30
2019-02-23T03:23:01.873Z,65.70
2019-02-23T03:25:30.289Z,65.10
2019-02-23T03:27:58.733Z,65.70
2019-02-23T03:30:27.159Z,64.90
2019-02-23T03:32:55.589Z,62.50
2019-02-23T03:35:24.043Z,65.40
2019-02-23T03:37:52.475Z,64.20
2019-02-23T03:40:20.894Z,63.40
2019-02-23T03:42:49.681Z,63.20
2019-02-23T03:45:18.109Z,62.60
2019-02-23T03:47:46.549Z,64.10
2019-02-23T03:50:14.973Z,64.60
2019-02-23T03:52:43.410Z,64.90
2019-02-23T03:55:12.002Z,66.30
2019-02-23T03:57:40.773Z,65.20
2019-02-23T04:00:10.243Z,66.00
2019-02-23T04:02:38.665Z,67.00
2019-02-23T04:05:07.250Z,66.90
2019-02-23T04:07:35.673Z,66.60
2019-02-23T04:10:23.445Z,66.70
2019-02-23T04:12:51.885Z,67.00
2019-02-23T04:15:20.626Z,64.00
2019-02-23T04:17:49.045Z,66.50
2019-02-23T04:20:17.485Z,65.90
2019-02-23T04:22:45.916Z,65.60
2019-02-23T04:25:14.357Z,64.00
2019-02-23T04:27:44.658Z,64.60
2019-02-23T04:30:13.170Z,64.90
2019-02-23T04:32:41.603Z,63.70
2019-02-23T04:35:10.037Z,65.10
2019-02-23T04:37:38.472Z,63.30
2019-02-23T04:40:07.548Z,63.10
2019-02-23T04:42:35.977Z,65.10
2019-02-23T04:45:06.068Z,61.00
2019-02-23T04:47:34.498Z,63.70
2019-02-23T04:50:02.964Z,59.40
2019-02-23T04:52:31.503Z,63.10
2019-02-23T04:54:59.942Z,63.00
2019-02-23T04:57:28.369Z,62.10
2019-02-23T04:59:56.826Z,62.40
2019-02-23T05:02:25.261Z,62.70
2019-02-23T05:04:53.700Z,63.00
2019-02-23T05:07:22.372Z,63.00
2019-02-23T05:09:50.813Z,62.40
2019-02-23T05:12:19.593Z,62.30
2019-02-23T05:14:48.049Z,62.20
2019-02-23T05:17:16.509Z,60.00
2019-02-23T05:19:45.249Z,62.20
2019-02-23T05:22:13.749Z,63.80
2019-02-23T05:24:42.265Z,63.80
2019-02-23T05:27:10.933Z,64.40
2019-02-23T05:29:39.681Z,63.90
2019-02-23T05:32:08.106Z,64.70
2019-02-23T05:34:36.854Z,64.80
2019-02-23T05:37:05.534Z,64.80
2019-02-23T05:39:33.993Z,65.00
2019-02-23T05:42:02.423Z,65.40
2019-02-23T05:44:30.880Z,66.30
2019-02-23T05:46:59.588Z,65.90
2019-02-23T05:49:28.029Z,65.40
2019-02-23T05:51:56.732Z,66.70
2019-02-23T05:54:25.250Z,66.80
2019-02-23T05:56:53.678Z,67.00
2019-02-23T05:59:22.117Z,67.50
2019-02-23T06:01:50.537Z,67.80
2019-02-23T06:04:18.983Z,67.60
2019-02-23T06:06:47.410Z,67.50
2019-02-23T06:09:16.210Z,68.20
2019-02-23T06:11:44.642Z,68.20
2019-02-23T06:14:13.087Z,68.60
2019-02-23T06:16:41.525Z,67.70
2019-02-23T06:19:10.207Z,68.50
2019-02-23T06:21:52.319Z,69.20
2019-02-23T06:24:09.058Z,67.60
2019-02-23T06:26:37.833Z,66.60
2019-02-23T06:29:06.297Z,67.40
2019-02-23T06:31:34.781Z,67.90
2019-02-23T06:34:12.503Z,68.40
2019-02-23T06:36:33.376Z,67.60
2019-02-23T06:39:02.085Z,67.00
2019-02-23T06:41:30.532Z,68.40
2019-02-23T06:43:58.966Z,68.20
2019-02-23T06:46:27.690Z,68.20
2019-02-23T06:48:56.148Z,68.50
2019-02-23T06:51:24.585Z,68.80
2019-02-23T06:53:53.267Z,68.90
2019-02-23T06:56:21.721Z,67.40
2019-02-23T06:58:50.190Z,69.00
2019-02-23T07:01:18.626Z,69.30
2019-02-23T07:03:47.084Z,68.60
2019-02-23T07:06:15.794Z,69.40
2019-02-23T07:08:44.391Z,69.50
2019-02-23T07:11:13.171Z,68.40
2019-02-23T07:13:41.856Z,68.40
2019-02-23T07:16:10.339Z,69.20
2019-02-23T07:18:38.905Z,68.60
2019-02-23T07:21:07.710Z,68.50
2019-02-23T07:23:36.137Z,68.30
2019-02-23T07:26:04.593Z,69.10
2019-02-23T07:28:33.060Z,69.00
2019-02-23T07:31:01.753Z,69.30
2019-02-23T07:33:33.084Z,68.80
2019-02-23T07:36:00.389Z,69.00
2019-02-23T07:38:28.830Z,68.90
2019-02-23T07:40:57.609Z,68.30
2019-02-23T07:43:26.126Z,67.60
2019-02-23T07:45:54.599Z,68.00
2019-02-23T07:48:27.970Z,67.70
2019-02-23T07:50:57.285Z,68.10
2019-02-23T07:53:25.713Z,68.70
2019-02-23T07:55:54.437Z,69.00
2019-02-23T07:58:22.869Z,68.60
2019-02-23T08:00:51.344Z,69.50
2019-02-23T08:03:19.764Z,68.50
2019-02-23T08:05:48.276Z,68.10
2019-02-23T08:08:16.980Z,69.00
2019-02-23T08:10:45.501Z,69.50
2019-02-23T08:13:13.933Z,69.60
2019-02-23T08:15:42.401Z,69.30
2019-02-23T08:18:10.824Z,69.60
2019-02-23T08:20:39.253Z,70.00
2019-02-23T08:23:07.722Z,68.50
2019-02-23T08:25:36.169Z,69.40
2019-02-23T08:28:04.634Z,69.40
2019-02-23T08:30:33.125Z,69.30
2019-02-23T08:33:01.573Z,69.10
2019-02-23T08:35:30.067Z,69.30
2019-02-23T08:37:58.536Z,69.40
2019-02-23T08:40:26.970Z,68.50
2019-02-23T08:42:55.716Z,68.70
2019-02-23T08:45:24.137Z,68.90
2019-02-23T08:47:52.577Z,68.40
2019-02-23T08:50:21.010Z,67.60
2019-02-23T08:52:50.488Z,67.40
2019-02-23T08:55:19.157Z,66.90
2019-02-23T08:57:47.585Z,67.80
2019-02-23T09:00:17.773Z,67.70
2019-02-23T09:02:46.241Z,69.00
2019-02-23T09:05:15.041Z,67.70
2019-02-23T09:07:43.505Z,68.40
2019-02-23T09:10:13.881Z,67.70
2019-02-23T09:12:42.332Z,68.10
2019-02-23T09:15:11.617Z,69.40
2019-02-23T09:17:40.071Z,66.50
2019-02-23T09:20:10.332Z,69.50
2019-02-23T09:22:38.774Z,68.90
2019-02-23T09:25:09.062Z,69.20
2019-02-23T09:27:37.526Z,68.10
2019-02-23T09:30:09.093Z,68.10
2019-02-23T09:32:37.541Z,68.60
2019-02-23T09:35:06.504Z,68.60
2019-02-23T09:37:35.295Z,69.40
2019-02-23T09:40:05.305Z,69.00
2019-02-23T09:42:34.099Z,67.70
2019-02-23T09:45:02.545Z,68.20
2019-02-23T09:47:30.988Z,66.00
2019-02-23T09:49:59.421Z,66.30
2019-02-23T09:52:27.911Z,68.00
2019-02-23T09:54:56.333Z,68.00
2019-02-23T09:57:24.793Z,64.60
2019-02-23T09:59:53.291Z,65.70
2019-02-23T10:02:22.001Z,64.40
2019-02-23T10:04:50.423Z,61.70
2019-02-23T10:07:18.865Z,59.50
2019-02-23T10:09:47.401Z,59.60
2019-02-23T10:12:15.905Z,61.40
2019-02-23T10:14:44.328Z,58.50
2019-02-23T10:17:12.805Z,62.30
2019-02-23T10:19:41.230Z,60.10
2019-02-23T10:22:09.690Z,58.90
2019-02-23T10:24:38.113Z,61.70
2019-02-23T10:27:06.569Z,62.70
2019-02-23T10:29:35.013Z,61.30
2019-02-23T10:32:03.542Z,59.00
2019-02-23T10:34:32.040Z,57.70
2019-02-23T10:37:00.797Z,60.30
2019-02-23T10:39:29.229Z,62.20
2019-02-23T10:41:57.684Z,58.10
2019-02-23T10:44:26.114Z,59.40
2019-02-23T10:46:54.541Z,61.90
2019-02-23T10:49:23.052Z,62.30
2019-02-23T10:51:51.960Z,62.70
2019-02-23T10:54:20.961Z,60.30
2019-02-23T10:56:49.959Z,61.40
2019-02-23T10:59:18.594Z,62.90
2019-02-23T11:01:47.091Z,61.50
2019-02-23T11:04:15.839Z,62.30
2019-02-23T11:06:44.369Z,62.60
2019-02-23T11:09:15.119Z,63.20
2019-02-23T11:11:43.681Z,62.20
2019-02-23T11:14:12.113Z,59.30
2019-02-23T11:16:40.906Z,60.60
2019-02-23T11:19:09.338Z,60.00
2019-02-23T11:21:37.884Z,58.80
2019-02-23T11:24:06.381Z,59.10
2019-02-23T11:26:34.817Z,59.60
2019-02-23T11:29:03.620Z,61.40
2019-02-23T11:31:32.046Z,62.20
2019-02-23T11:34:00.791Z,61.50
2019-02-23T11:36:29.210Z,62.20
2019-02-23T11:38:57.670Z,59.70
2019-02-23T11:41:26.441Z,60.20
2019-02-23T11:43:54.905Z,59.70
2019-02-23T11:46:23.349Z,59.10
2019-02-23T11:48:51.769Z,58.60
2019-02-23T11:51:20.235Z,59.70
2019-02-23T11:53:59.701Z,59.10
2019-02-23T11:56:28.120Z,58.10
2019-02-23T11:58:56.566Z,58.50
2019-02-23T12:01:25.006Z,57.60
2019-02-23T12:03:53.427Z,59.70
2019-02-23T12:06:22.214Z,57.90
2019-02-23T12:08:50.665Z,59.40
2019-02-23T12:11:19.233Z,57.60
2019-02-23T12:13:47.653Z,58.60
2019-02-23T12:16:16.185Z,56.70
2019-02-23T12:18:44.636Z,57.10
2019-02-23T12:21:13.086Z,58.80
2019-02-23T12:23:41.533Z,56.50
2019-02-23T12:26:09.952Z,56.70
2019-02-23T12:28:38.421Z,58.00
2019-02-23T12:31:06.934Z,59.30
2019-02-23T12:33:35.428Z,57.80
2019-02-23T12:36:04.198Z,58.30
2019-02-23T12:38:32.617Z,58.20
2019-02-23T12:41:01.317Z,55.90
2019-02-23T12:43:29.734Z,57.70
2019-02-23T12:45:58.645Z,56.10
2019-02-23T12:51:56.554Z,55.80
2019-02-23T12:54:25.041Z,55.50
2019-02-23T12:56:53.926Z,56.10
2019-02-23T12:59:22.352Z,54.40
2019-02-23T13:01:50.789Z,56.30
2019-02-23T13:04:19.217Z,56.90
2019-02-23T13:06:47.737Z,57.70
2019-02-23T13:09:21.665Z,56.80
2019-02-23T13:12:08.361Z,57.30
2019-02-23T13:14:54.876Z,57.10
2019-02-23T13:17:44.140Z,57.30
2019-02-23T13:20:30.821Z,56.70
2019-02-23T13:23:16.700Z,55.50
2019-02-23T13:26:15.165Z,55.00
2019-02-23T13:29:25.286Z,54.70
2019-02-23T13:31:56.801Z,55.70
2019-02-23T13:34:42.941Z,57.10
2019-02-23T13:37:20.387Z,57.50
2019-02-23T13:40:00.806Z,55.90
2019-02-23T13:42:35.594Z,54.60
2019-02-23T13:45:27.034Z,56.90
2019-02-23T13:48:07.226Z,55.50
2019-02-23T13:50:56.850Z,53.80
2019-02-23T13:53:45.051Z,51.50
2019-02-23T13:56:47.065Z,51.60
2019-02-23T13:59:24.677Z,53.20
2019-02-23T14:02:13.067Z,53.50
2019-02-23T14:04:50.726Z,53.00
2019-02-23T14:07:28.294Z,53.80
2019-02-23T14:10:16.505Z,54.00
2019-02-23T14:13:04.351Z,51.00
2019-02-23T14:16:04.786Z,51.30
2019-02-23T14:18:54.288Z,49.00
2019-02-23T14:21:45.336Z,52.50
2019-02-23T14:24:50.183Z,53.30
2019-02-23T14:27:36.921Z,51.80
2019-02-23T14:30:14.307Z,47.30
2019-02-23T14:33:09.356Z,47.30
2019-02-23T14:35:43.666Z,45.30
2019-02-23T14:38:32.822Z,48.70
2019-02-23T14:41:21.119Z,49.60
2019-02-23T14:44:04.771Z,47.60
2019-02-23T14:47:01.886Z,47.20
2019-02-23T14:49:39.721Z,47.60
2019-02-23T14:52:38.607Z,47.70
2019-02-23T14:55:34.187Z,48.90
2019-02-23T14:58:22.520Z,49.10
2019-02-23T15:01:16.445Z,49.60
2019-02-23T15:04:18.241Z,49.20
2019-02-23T15:07:08.095Z,49.20
2019-02-23T15:09:48.603Z,51.70
2019-02-23T15:12:31.926Z,51.20
2019-02-23T15:15:03.627Z,52.00
2019-02-23T15:18:08.125Z,51.40
2019-02-23T15:20:45.645Z,51.30
2019-02-23T15:23:22.307Z,52.80
2019-02-23T15:26:13.953Z,51.80
2019-02-23T15:29:12.930Z,48.80
2019-02-23T15:32:02.658Z,49.60
2019-02-23T15:34:39.937Z,48.20
2019-02-23T15:37:32.660Z,49.00
2019-02-23T15:40:07.703Z,49.70
2019-02-23T15:43:00.564Z,49.00
2019-02-23T15:45:50.895Z,49.10
2019-02-23T15:48:49.691Z,49.40
2019-02-23T15:51:18.150Z,50.10
2019-02-23T15:53:46.809Z,50.50
2019-02-23T15:56:15.533Z,49.10
2019-02-23T15:58:44.032Z,47.90
2019-02-23T16:01:13.096Z,50.70
2019-02-23T16:03:41.725Z,48.40
2019-02-23T16:06:10.191Z,50.60
2019-02-23T16:08:38.805Z,49.10
2019-02-23T16:11:07.899Z,49.20
2019-02-23T16:13:36.477Z,48.70
2019-02-23T16:16:05.587Z,48.90
2019-02-23T16:18:34.253Z,50.10
2019-02-23T16:21:02.811Z,48.30
2019-02-23T16:23:35.255Z,50.10
2019-02-23T16:26:01.743Z,49.30
2019-02-23T16:28:30.261Z,49.80
2019-02-23T16:30:59.623Z,50.10
2019-02-23T16:33:28.406Z,48.60
2019-02-23T16:35:56.833Z,49.40
2019-02-23T16:38:25.303Z,50.60
2019-02-23T16:40:53.798Z,50.00
2019-02-23T16:43:22.246Z,49.90
2019-02-23T16:45:50.700Z,49.00
2019-02-23T16:48:19.162Z,49.30
2019-02-23T16:50:47.587Z,49.60
2019-02-23T16:53:16.021Z,50.40
2019-02-23T16:55:50.956Z,49.10
2019-02-23T16:58:14.618Z,49.90
2019-02-23T17:00:43.047Z,49.60
2019-02-23T17:03:11.489Z,49.90
2019-02-23T17:05:39.909Z,50.40
2019-02-23T17:08:08.348Z,49.80
2019-02-23T17:10:36.896Z,50.50
2019-02-23T17:13:05.390Z,51.10
2019-02-23T17:15:33.817Z,50.60
2019-02-23T17:18:02.278Z,51.00
2019-02-23T17:20:30.693Z,51.20
2019-02-23T17:23:01.993Z,50.20
2019-02-23T17:25:29.615Z,50.10
2019-02-23T17:27:58.053Z,50.20
2019-02-23T17:30:26.477Z,50.40
2019-02-23T17:32:55.092Z,50.60
2019-02-23T17:35:23.850Z,51.20
2019-02-23T17:37:52.638Z,48.30
2019-02-23T17:40:21.053Z,49.90
2019-02-23T17:42:49.553Z,49.70
2019-02-23T17:45:18.390Z,48.40
2019-02-23T17:47:46.809Z,50.00
2019-02-23T17:50:15.246Z,49.30
2019-02-23T17:52:43.740Z,50.00
2019-02-23T17:55:12.210Z,50.20
2019-02-23T17:57:40.633Z,49.70
2019-02-23T18:00:12.781Z,50.80
2019-02-23T18:02:41.249Z,50.70
2019-02-23T18:05:13.673Z,51.20
2019-02-23T18:07:42.389Z,50.60
2019-02-23T18:10:10.820Z,51.20
2019-02-23T18:12:39.284Z,51.90
2019-02-23T18:15:09.458Z,51.50
2019-02-23T18:17:37.882Z,51.10
2019-02-23T18:20:09.658Z,51.30
2019-02-23T18:22:38.089Z,49.60
2019-02-23T18:25:07.791Z,51.60
2019-02-23T18:27:36.409Z,51.10
2019-02-23T18:30:11.428Z,51.40
2019-02-23T18:32:40.339Z,52.30
2019-02-23T18:35:09.662Z,52.10
2019-02-23T18:37:38.098Z,52.90
2019-02-23T18:40:08.179Z,53.20
2019-02-23T18:42:36.625Z,52.90
2019-02-23T18:45:07.198Z,53.20
2019-02-23T18:47:36.043Z,53.50
2019-02-23T18:50:06.015Z,53.70
2019-02-23T18:52:34.495Z,54.10
2019-02-23T18:55:03.705Z,54.50
2019-02-23T18:57:32.238Z,54.00
2019-02-23T19:00:00.981Z,54.60
2019-02-23T19:02:29.449Z,54.60
2019-02-23T19:04:58.030Z,54.80
2019-02-23T19:07:26.453Z,55.10
2019-02-23T19:09:55.042Z,54.90
2019-02-23T19:12:23.471Z,55.50
2019-02-23T19:14:51.973Z,55.00
2019-02-23T19:17:20.406Z,55.60
2019-02-23T19:19:48.865Z,54.20
2019-02-23T19:22:17.303Z,54.50
2019-02-23T19:25:06.069Z,54.20
2019-02-23T19:27:34.833Z,53.60
2019-02-23T19:30:04.261Z,53.30
2019-02-23T19:32:32.725Z,52.90
2019-02-23T19:35:01.164Z,53.20
2019-02-23T19:37:29.584Z,52.70
2019-02-23T19:39:58.015Z,53.60
2019-02-23T19:42:26.469Z,53.80
2019-02-23T19:44:54.903Z,54.30
2019-02-23T19:47:23.392Z,54.70
2019-02-23T19:49:52.490Z,54.00
2019-02-23T19:52:21.189Z,54.20
2019-02-23T19:54:49.701Z,53.80
2019-02-23T19:57:18.122Z,53.30
2019-02-23T19:59:46.557Z,53.90
2019-02-23T20:02:15.007Z,52.80
2019-02-23T20:04:43.821Z,54.00
2019-02-23T20:07:12.274Z,54.00
2019-02-23T20:09:40.688Z,53.50
2019-02-23T20:12:09.124Z,54.40
2019-02-23T20:14:37.624Z,54.10
2019-02-23T20:17:06.090Z,53.70
2019-02-23T20:19:34.807Z,54.20
2019-02-23T20:22:03.236Z,52.90
2019-02-23T20:24:31.973Z,53.80
2019-02-23T20:27:00.460Z,55.10
2019-02-23T20:29:29.103Z,56.60
2019-02-23T20:31:57.697Z,58.10
2019-02-23T20:34:26.112Z,58.40
2019-02-23T20:36:54.577Z,58.30
2019-02-23T20:39:23.036Z,59.40
2019-02-23T20:41:52.023Z,59.40
2019-02-23T20:44:20.873Z,60.00
2019-02-23T20:46:49.439Z,60.00
2019-02-23T20:49:17.964Z,60.60
2019-02-23T20:51:46.470Z,60.20
2019-02-23T20:54:14.907Z,60.40
2019-02-23T20:56:43.674Z,60.60
2019-02-23T20:59:12.129Z,61.50
2019-02-23T21:01:40.635Z,61.60
2019-02-23T21:04:09.065Z,60.70
2019-02-23T21:06:37.513Z,61.80
2019-02-23T21:09:07.319Z,62.30
2019-02-23T21:11:36.136Z,62.20
2019-02-23T21:14:04.641Z,63.10
2019-02-23T21:16:33.141Z,62.40
2019-02-23T21:19:01.599Z,62.60
2019-02-23T21:21:30.022Z,62.30
2019-02-23T21:23:58.456Z,62.30
2019-02-23T21:26:26.897Z,62.30
2019-02-23T21:28:55.358Z,62.30
2019-02-23T21:31:24.085Z,62.60
2019-02-23T21:33:52.873Z,63.40
2019-02-23T21:36:21.308Z,63.20
2019-02-23T21:38:49.734Z,65.10
2019-02-23T21:41:18.199Z,64.30
2019-02-23T21:43:46.651Z,64.10
2019-02-23T21:46:15.295Z,64.60
2019-02-23T21:48:44.029Z,64.80
2019-02-23T21:51:12.469Z,65.50
2019-02-23T21:54:00.801Z,67.00
2019-02-23T21:56:29.286Z,65.20
2019-02-23T21:58:57.736Z,65.40
2019-02-23T22:01:26.453Z,65.20
2019-02-23T22:03:54.909Z,65.80
2019-02-23T22:06:23.722Z,67.40
2019-02-23T22:08:52.151Z,67.30
2019-02-23T22:11:20.617Z,67.20
2019-02-23T22:13:49.120Z,66.90
2019-02-23T22:16:17.864Z,67.00
2019-02-23T22:18:46.377Z,67.70
2019-02-23T22:21:15.145Z,67.40
2019-02-23T22:23:43.565Z,66.50
2019-02-23T22:26:12.000Z,67.00
2019-02-23T22:28:40.442Z,68.10
2019-02-23T22:31:08.859Z,67.20
2019-02-23T22:33:37.428Z,66.90
2019-02-23T22:36:05.941Z,67.00
2019-02-23T22:38:34.364Z,67.20
2019-02-23T22:41:02.825Z,68.10
2019-02-23T22:43:31.255Z,68.40
2019-02-23T22:45:59.731Z,68.60
2019-02-23T22:48:28.212Z,68.70
2019-02-23T22:50:56.801Z,69.70
2019-02-23T22:53:25.241Z,72.60
2019-02-23T22:55:53.678Z,72.60
2019-02-23T22:58:22.126Z,71.50
2019-02-23T23:00:58.192Z,71.50
2019-02-23T23:03:26.734Z,72.30
2019-02-23T23:05:55.572Z,71.70
2019-02-23T23:08:24.005Z,71.70
2019-02-23T23:10:52.444Z,72.30
2019-02-23T23:13:21.977Z,73.60
2019-02-23T23:15:50.492Z,72.30
2019-02-23T23:18:18.937Z,73.80
2019-02-23T23:20:47.365Z,72.40
2019-02-23T23:23:15.842Z,72.80
2019-02-23T23:25:44.392Z,72.80
2019-02-23T23:28:12.922Z,74.10
2019-02-23T23:30:41.626Z,74.20
2019-02-23T23:33:10.077Z,73.00
2019-02-23T23:35:38.799Z,73.10
2019-02-23T23:38:08.789Z,74.60
2019-02-23T23:40:37.212Z,72.80
2019-02-23T23:43:05.662Z,73.50
2019-02-23T23:45:34.149Z,72.30
2019-02-23T23:48:02.601Z,73.10
2019-02-23T23:50:31.095Z,72.00
2019-02-23T23:52:59.921Z,73.00
2019-02-23T23:55:28.408Z,73.70
2019-02-23T23:57:58.579Z,72.80
